sensor_id;sensor_type;location;lat;lon;timestamp;temperature;humidity
4097;DHT22;2062;50.694;7.246;2022-08-19T00:01:18;26.90;37.80
4097;DHT22;2062;50.694;7.246;2022-08-19T00:03:45;26.90;37.10
4097;DHT22;2062;50.694;7.246;2022-08-19T00:06:12;26.90;37.10
4097;DHT22;2062;50.694;7.246;2022-08-19T00:08:39;26.90;37.20
4097;DHT22;2062;50.694;7.246;2022-08-19T00:11:07;26.90;37.10
4097;DHT22;2062;50.694;7.246;2022-08-19T00:13:36;26.90;37.10
4097;DHT22;2062;50.694;7.246;2022-08-19T00:16:04;26.90;37.10
4097;DHT22;2062;50.694;7.246;2022-08-19T00:18:32;26.90;37.10
4097;DHT22;2062;50.694;7.246;2022-08-19T00:20:59;26.90;37.10
4097;DHT22;2062;50.694;7.246;2022-08-19T00:23:26;26.90;37.10
4097;DHT22;2062;50.694;7.246;2022-08-19T00:25:53;26.90;37.10
4097;DHT22;2062;50.694;7.246;2022-08-19T00:28:20;26.90;37.10
4097;DHT22;2062;50.694;7.246;2022-08-19T00:30:48;26.90;37.10
4097;DHT22;2062;50.694;7.246;2022-08-19T00:33:17;26.90;37.20
4097;DHT22;2062;50.694;7.246;2022-08-19T00:35:44;26.90;37.10
4097;DHT22;2062;50.694;7.246;2022-08-19T00:38:10;26.90;37.10
4097;DHT22;2062;50.694;7.246;2022-08-19T00:40:37;26.90;37.10
4097;DHT22;2062;50.694;7.246;2022-08-19T00:43:08;26.90;37.20
4097;DHT22;2062;50.694;7.246;2022-08-19T00:45:35;26.90;37.10
4097;DHT22;2062;50.694;7.246;2022-08-19T00:48:03;26.90;37.80
4097;DHT22;2062;50.694;7.246;2022-08-19T00:50:31;26.90;37.20
4097;DHT22;2062;50.694;7.246;2022-08-19T00:52:58;26.90;37.20
4097;DHT22;2062;50.694;7.246;2022-08-19T00:55:26;26.90;37.20
4097;DHT22;2062;50.694;7.246;2022-08-19T00:57:58;26.90;37.20
4097;DHT22;2062;50.694;7.246;2022-08-19T01:00:27;26.90;37.10
4097;DHT22;2062;50.694;7.246;2022-08-19T01:02:55;26.90;37.20
4097;DHT22;2062;50.694;7.246;2022-08-19T01:05:27;26.90;37.20
4097;DHT22;2062;50.694;7.246;2022-08-19T01:07:56;26.90;37.20
4097;DHT22;2062;50.694;7.246;2022-08-19T01:10:27;26.90;37.20
4097;DHT22;2062;50.694;7.246;2022-08-19T01:12:55;26.90;37.20
4097;DHT22;2062;50.694;7.246;2022-08-19T01:15:25;26.90;37.20
4097;DHT22;2062;50.694;7.246;2022-08-19T01:17:53;26.90;37.20
4097;DHT22;2062;50.694;7.246;2022-08-19T01:20:23;26.90;37.20
4097;DHT22;2062;50.694;7.246;2022-08-19T01:22:54;26.90;37.20
4097;DHT22;2062;50.694;7.246;2022-08-19T01:25:24;26.90;37.20
4097;DHT22;2062;50.694;7.246;2022-08-19T01:27:51;26.90;37.20
4097;DHT22;2062;50.694;7.246;2022-08-19T01:30:22;26.90;37.20
4097;DHT22;2062;50.694;7.246;2022-08-19T01:32:49;26.90;37.20
4097;DHT22;2062;50.694;7.246;2022-08-19T01:35:17;26.90;37.20
4097;DHT22;2062;50.694;7.246;2022-08-19T01:37:45;26.90;37.20
4097;DHT22;2062;50.694;7.246;2022-08-19T01:40:14;26.90;37.20
4097;DHT22;2062;50.694;7.246;2022-08-19T01:42:42;26.90;37.20
4097;DHT22;2062;50.694;7.246;2022-08-19T01:45:09;26.90;37.20
4097;DHT22;2062;50.694;7.246;2022-08-19T01:47:37;26.80;37.20
4097;DHT22;2062;50.694;7.246;2022-08-19T01:50:05;26.90;37.20
4097;DHT22;2062;50.694;7.246;2022-08-19T01:52:34;26.80;37.30
4097;DHT22;2062;50.694;7.246;2022-08-19T01:55:01;26.90;37.30
4097;DHT22;2062;50.694;7.246;2022-08-19T01:57:30;26.90;37.20
4097;DHT22;2062;50.694;7.246;2022-08-19T01:59:57;26.90;37.20
4097;DHT22;2062;50.694;7.246;2022-08-19T02:02:24;26.90;37.20
4097;DHT22;2062;50.694;7.246;2022-08-19T02:04:52;26.80;37.30
4097;DHT22;2062;50.694;7.246;2022-08-19T02:07:19;26.90;37.30
4097;DHT22;2062;50.694;7.246;2022-08-19T02:09:46;26.90;37.30
4097;DHT22;2062;50.694;7.246;2022-08-19T02:12:14;26.80;37.90
4097;DHT22;2062;50.694;7.246;2022-08-19T02:14:43;26.80;37.30
4097;DHT22;2062;50.694;7.246;2022-08-19T02:17:10;26.80;37.30
4097;DHT22;2062;50.694;7.246;2022-08-19T02:19:36;26.90;37.30
4097;DHT22;2062;50.694;7.246;2022-08-19T02:22:04;26.90;37.30
4097;DHT22;2062;50.694;7.246;2022-08-19T02:24:31;26.90;37.30
4097;DHT22;2062;50.694;7.246;2022-08-19T02:26:57;26.90;37.30
4097;DHT22;2062;50.694;7.246;2022-08-19T02:29:25;26.90;37.30
4097;DHT22;2062;50.694;7.246;2022-08-19T02:31:53;26.90;37.30
4097;DHT22;2062;50.694;7.246;2022-08-19T02:34:20;26.80;37.30
4097;DHT22;2062;50.694;7.246;2022-08-19T02:36:47;26.80;37.30
4097;DHT22;2062;50.694;7.246;2022-08-19T02:39:13;26.90;37.30
4097;DHT22;2062;50.694;7.246;2022-08-19T02:41:39;26.90;37.30
4097;DHT22;2062;50.694;7.246;2022-08-19T02:44:07;26.80;37.30
4097;DHT22;2062;50.694;7.246;2022-08-19T02:46:34;26.90;37.30
4097;DHT22;2062;50.694;7.246;2022-08-19T02:49:05;26.80;37.30
4097;DHT22;2062;50.694;7.246;2022-08-19T02:51:34;26.80;37.30
4097;DHT22;2062;50.694;7.246;2022-08-19T02:54:02;26.80;37.30
4097;DHT22;2062;50.694;7.246;2022-08-19T02:56:29;26.90;38.00
4097;DHT22;2062;50.694;7.246;2022-08-19T02:58:57;26.80;37.30
4097;DHT22;2062;50.694;7.246;2022-08-19T03:01:26;26.80;37.30
4097;DHT22;2062;50.694;7.246;2022-08-19T03:03:54;26.80;37.30
4097;DHT22;2062;50.694;7.246;2022-08-19T03:06:22;26.80;37.30
4097;DHT22;2062;50.694;7.246;2022-08-19T03:08:49;26.80;37.30
4097;DHT22;2062;50.694;7.246;2022-08-19T03:11:18;26.80;37.40
4097;DHT22;2062;50.694;7.246;2022-08-19T03:13:45;26.80;37.30
4097;DHT22;2062;50.694;7.246;2022-08-19T03:16:15;26.80;37.30
4097;DHT22;2062;50.694;7.246;2022-08-19T03:18:42;26.80;37.30
4097;DHT22;2062;50.694;7.246;2022-08-19T03:21:09;26.80;37.40
4097;DHT22;2062;50.694;7.246;2022-08-19T03:23:37;26.70;37.40
4097;DHT22;2062;50.694;7.246;2022-08-19T03:26:05;26.80;37.40
4097;DHT22;2062;50.694;7.246;2022-08-19T03:28:32;26.80;37.40
4097;DHT22;2062;50.694;7.246;2022-08-19T03:31:01;26.80;37.40
4097;DHT22;2062;50.694;7.246;2022-08-19T03:33:30;26.80;37.40
4097;DHT22;2062;50.694;7.246;2022-08-19T03:36:05;26.80;37.40
4097;DHT22;2062;50.694;7.246;2022-08-19T03:38:33;26.80;37.30
4097;DHT22;2062;50.694;7.246;2022-08-19T03:41:04;26.70;37.40
4097;DHT22;2062;50.694;7.246;2022-08-19T03:43:34;26.80;37.40
4097;DHT22;2062;50.694;7.246;2022-08-19T03:46:02;26.80;37.40
4097;DHT22;2062;50.694;7.246;2022-08-19T03:48:30;26.80;37.40
4097;DHT22;2062;50.694;7.246;2022-08-19T03:50:58;26.80;37.40
4097;DHT22;2062;50.694;7.246;2022-08-19T03:53:26;26.80;37.40
4097;DHT22;2062;50.694;7.246;2022-08-19T03:55:53;26.70;37.40
4097;DHT22;2062;50.694;7.246;2022-08-19T03:58:22;26.80;37.40
4097;DHT22;2062;50.694;7.246;2022-08-19T04:00:49;26.70;37.40
4097;DHT22;2062;50.694;7.246;2022-08-19T04:03:16;26.70;37.40
4097;DHT22;2062;50.694;7.246;2022-08-19T04:05:44;26.70;37.40
4097;DHT22;2062;50.694;7.246;2022-08-19T04:08:11;26.80;37.50
4097;DHT22;2062;50.694;7.246;2022-08-19T04:10:38;26.70;37.40
4097;DHT22;2062;50.694;7.246;2022-08-19T04:13:06;26.70;37.40
4097;DHT22;2062;50.694;7.246;2022-08-19T04:15:39;26.70;37.40
4097;DHT22;2062;50.694;7.246;2022-08-19T04:18:07;26.60;38.10
4097;DHT22;2062;50.694;7.246;2022-08-19T04:20:39;26.70;37.50
4097;DHT22;2062;50.694;7.246;2022-08-19T04:23:06;26.70;37.50
4097;DHT22;2062;50.694;7.246;2022-08-19T04:25:36;26.80;37.50
4097;DHT22;2062;50.694;7.246;2022-08-19T04:28:04;26.70;37.50
4097;DHT22;2062;50.694;7.246;2022-08-19T04:30:37;26.70;37.50
4097;DHT22;2062;50.694;7.246;2022-08-19T04:33:04;26.70;37.50
4097;DHT22;2062;50.694;7.246;2022-08-19T04:35:36;26.70;37.50
4097;DHT22;2062;50.694;7.246;2022-08-19T04:38:03;26.70;37.50
4097;DHT22;2062;50.694;7.246;2022-08-19T04:40:30;26.70;37.50
4097;DHT22;2062;50.694;7.246;2022-08-19T04:43:14;26.70;37.50
4097;DHT22;2062;50.694;7.246;2022-08-19T04:45:43;26.70;37.60
4097;DHT22;2062;50.694;7.246;2022-08-19T04:48:10;26.70;37.60
4097;DHT22;2062;50.694;7.246;2022-08-19T04:50:40;26.70;37.70
4097;DHT22;2062;50.694;7.246;2022-08-19T04:53:07;26.70;37.70
4097;DHT22;2062;50.694;7.246;2022-08-19T04:55:34;26.70;37.80
4097;DHT22;2062;50.694;7.246;2022-08-19T04:58:01;26.70;37.80
4097;DHT22;2062;50.694;7.246;2022-08-19T05:00:29;26.70;37.90
4097;DHT22;2062;50.694;7.246;2022-08-19T05:02:57;26.70;37.90
4097;DHT22;2062;50.694;7.246;2022-08-19T05:05:24;26.70;37.90
4097;DHT22;2062;50.694;7.246;2022-08-19T05:07:51;26.70;38.00
4097;DHT22;2062;50.694;7.246;2022-08-19T05:10:18;26.70;38.20
4097;DHT22;2062;50.694;7.246;2022-08-19T05:12:46;26.80;38.10
4097;DHT22;2062;50.694;7.246;2022-08-19T05:15:12;26.70;38.10
4097;DHT22;2062;50.694;7.246;2022-08-19T05:17:39;26.70;38.20
4097;DHT22;2062;50.694;7.246;2022-08-19T05:20:29;26.70;38.30
4097;DHT22;2062;50.694;7.246;2022-08-19T05:23:13;26.80;38.20
4097;DHT22;2062;50.694;7.246;2022-08-19T05:25:41;26.70;38.20
4097;DHT22;2062;50.694;7.246;2022-08-19T05:28:08;26.70;38.80
4097;DHT22;2062;50.694;7.246;2022-08-19T05:30:36;26.70;38.20
4097;DHT22;2062;50.694;7.246;2022-08-19T05:33:03;26.70;38.20
4097;DHT22;2062;50.694;7.246;2022-08-19T05:35:31;26.80;38.20
4097;DHT22;2062;50.694;7.246;2022-08-19T05:37:58;26.70;38.10
4097;DHT22;2062;50.694;7.246;2022-08-19T05:40:24;26.80;38.10
4097;DHT22;2062;50.694;7.246;2022-08-19T05:42:51;26.80;38.10
4097;DHT22;2062;50.694;7.246;2022-08-19T05:45:18;26.80;38.10
4097;DHT22;2062;50.694;7.246;2022-08-19T05:47:47;26.80;38.10
4097;DHT22;2062;50.694;7.246;2022-08-19T05:50:14;26.80;38.70
4097;DHT22;2062;50.694;7.246;2022-08-19T05:52:44;26.70;38.10
4097;DHT22;2062;50.694;7.246;2022-08-19T05:55:11;26.70;38.00
4097;DHT22;2062;50.694;7.246;2022-08-19T05:57:38;26.80;38.00
4097;DHT22;2062;50.694;7.246;2022-08-19T06:00:06;26.80;38.00
4097;DHT22;2062;50.694;7.246;2022-08-19T06:02:36;26.80;38.00
4097;DHT22;2062;50.694;7.246;2022-08-19T06:05:03;26.80;38.00
4097;DHT22;2062;50.694;7.246;2022-08-19T06:07:32;26.80;37.90
4097;DHT22;2062;50.694;7.246;2022-08-19T06:10:00;26.90;37.90
4097;DHT22;2062;50.694;7.246;2022-08-19T06:12:27;26.80;37.90
4097;DHT22;2062;50.694;7.246;2022-08-19T06:14:57;26.80;37.90
4097;DHT22;2062;50.694;7.246;2022-08-19T06:17:23;26.90;38.60
4097;DHT22;2062;50.694;7.246;2022-08-19T06:19:51;26.80;37.80
4097;DHT22;2062;50.694;7.246;2022-08-19T06:22:18;26.80;37.90
4097;DHT22;2062;50.694;7.246;2022-08-19T06:24:45;26.80;37.90
4097;DHT22;2062;50.694;7.246;2022-08-19T06:27:13;26.80;37.80
4097;DHT22;2062;50.694;7.246;2022-08-19T06:29:41;26.80;37.80
4097;DHT22;2062;50.694;7.246;2022-08-19T06:32:08;26.80;37.80
4097;DHT22;2062;50.694;7.246;2022-08-19T06:34:35;26.80;38.50
4097;DHT22;2062;50.694;7.246;2022-08-19T06:37:02;26.80;37.80
4097;DHT22;2062;50.694;7.246;2022-08-19T06:39:38;26.80;37.80
4097;DHT22;2062;50.694;7.246;2022-08-19T06:42:06;26.80;37.80
4097;DHT22;2062;50.694;7.246;2022-08-19T06:44:37;26.80;37.80
4097;DHT22;2062;50.694;7.246;2022-08-19T06:47:07;26.80;37.80
4097;DHT22;2062;50.694;7.246;2022-08-19T06:49:34;26.80;37.70
4097;DHT22;2062;50.694;7.246;2022-08-19T06:52:02;26.80;37.70
4097;DHT22;2062;50.694;7.246;2022-08-19T06:54:30;26.80;37.80
4097;DHT22;2062;50.694;7.246;2022-08-19T06:56:58;26.80;37.80
4097;DHT22;2062;50.694;7.246;2022-08-19T06:59:28;26.80;37.80
4097;DHT22;2062;50.694;7.246;2022-08-19T07:02:01;26.80;37.80
4097;DHT22;2062;50.694;7.246;2022-08-19T07:04:31;26.80;38.60
4097;DHT22;2062;50.694;7.246;2022-08-19T07:07:02;26.80;37.80
4097;DHT22;2062;50.694;7.246;2022-08-19T07:09:32;26.70;37.80
4097;DHT22;2062;50.694;7.246;2022-08-19T07:11:58;26.70;37.80
4097;DHT22;2062;50.694;7.246;2022-08-19T07:14:27;26.80;37.80
4097;DHT22;2062;50.694;7.246;2022-08-19T07:16:56;26.80;37.80
4097;DHT22;2062;50.694;7.246;2022-08-19T07:19:26;26.70;37.70
4097;DHT22;2062;50.694;7.246;2022-08-19T07:21:53;26.70;37.70
4097;DHT22;2062;50.694;7.246;2022-08-19T07:24:21;26.80;37.70
4097;DHT22;2062;50.694;7.246;2022-08-19T07:26:50;26.80;37.80
4097;DHT22;2062;50.694;7.246;2022-08-19T07:29:18;26.70;37.80
4097;DHT22;2062;50.694;7.246;2022-08-19T07:31:48;26.80;37.70
4097;DHT22;2062;50.694;7.246;2022-08-19T07:34:16;26.80;37.70
4097;DHT22;2062;50.694;7.246;2022-08-19T07:36:45;26.70;37.70
4097;DHT22;2062;50.694;7.246;2022-08-19T07:39:15;26.80;37.70
4097;DHT22;2062;50.694;7.246;2022-08-19T07:41:45;26.70;37.70
4097;DHT22;2062;50.694;7.246;2022-08-19T07:44:13;26.80;37.70
4097;DHT22;2062;50.694;7.246;2022-08-19T07:46:44;26.70;37.70
4097;DHT22;2062;50.694;7.246;2022-08-19T07:49:12;26.80;37.70
4097;DHT22;2062;50.694;7.246;2022-08-19T07:51:44;26.80;37.70
4097;DHT22;2062;50.694;7.246;2022-08-19T07:54:11;26.70;37.70
4097;DHT22;2062;50.694;7.246;2022-08-19T07:56:38;26.70;37.70
4097;DHT22;2062;50.694;7.246;2022-08-19T07:59:06;26.70;37.70
4097;DHT22;2062;50.694;7.246;2022-08-19T08:01:33;26.70;37.70
4097;DHT22;2062;50.694;7.246;2022-08-19T08:04:00;26.70;37.70
4097;DHT22;2062;50.694;7.246;2022-08-19T08:06:46;26.70;38.40
4097;DHT22;2062;50.694;7.246;2022-08-19T08:09:33;26.70;38.30
4097;DHT22;2062;50.694;7.246;2022-08-19T08:12:03;26.70;37.70
4097;DHT22;2062;50.694;7.246;2022-08-19T08:14:35;26.70;37.70
4097;DHT22;2062;50.694;7.246;2022-08-19T08:17:03;26.70;37.70
4097;DHT22;2062;50.694;7.246;2022-08-19T08:19:31;26.70;37.70
4097;DHT22;2062;50.694;7.246;2022-08-19T08:22:00;26.70;37.70
4097;DHT22;2062;50.694;7.246;2022-08-19T08:24:29;26.70;37.70
4097;DHT22;2062;50.694;7.246;2022-08-19T08:26:58;26.70;37.70
4097;DHT22;2062;50.694;7.246;2022-08-19T08:29:25;26.70;37.70
4097;DHT22;2062;50.694;7.246;2022-08-19T08:31:53;26.70;37.70
4097;DHT22;2062;50.694;7.246;2022-08-19T08:34:20;26.70;37.70
4097;DHT22;2062;50.694;7.246;2022-08-19T08:36:47;26.70;37.70
4097;DHT22;2062;50.694;7.246;2022-08-19T08:39:19;26.70;37.60
4097;DHT22;2062;50.694;7.246;2022-08-19T08:41:51;26.70;37.60
4097;DHT22;2062;50.694;7.246;2022-08-19T08:44:22;26.70;37.70
4097;DHT22;2062;50.694;7.246;2022-08-19T08:46:53;26.70;37.60
4097;DHT22;2062;50.694;7.246;2022-08-19T08:49:28;26.70;37.60
4097;DHT22;2062;50.694;7.246;2022-08-19T08:52:00;26.70;37.60
4097;DHT22;2062;50.694;7.246;2022-08-19T08:54:33;26.70;37.60
4097;DHT22;2062;50.694;7.246;2022-08-19T08:57:04;26.70;37.60
4097;DHT22;2062;50.694;7.246;2022-08-19T08:59:36;26.70;37.60
4097;DHT22;2062;50.694;7.246;2022-08-19T09:02:04;26.70;37.50
4097;DHT22;2062;50.694;7.246;2022-08-19T09:04:31;26.70;37.60
4097;DHT22;2062;50.694;7.246;2022-08-19T09:07:11;26.70;38.20
4097;DHT22;2062;50.694;7.246;2022-08-19T09:09:45;26.70;37.50
4097;DHT22;2062;50.694;7.246;2022-08-19T09:12:20;26.70;37.50
4097;DHT22;2062;50.694;7.246;2022-08-19T09:14:51;26.70;37.50
4097;DHT22;2062;50.694;7.246;2022-08-19T09:17:21;26.70;37.50
4097;DHT22;2062;50.694;7.246;2022-08-19T09:19:55;26.70;37.50
4097;DHT22;2062;50.694;7.246;2022-08-19T09:22:23;26.70;37.50
4097;DHT22;2062;50.694;7.246;2022-08-19T09:24:54;26.70;37.50
4097;DHT22;2062;50.694;7.246;2022-08-19T09:27:22;26.70;37.50
4097;DHT22;2062;50.694;7.246;2022-08-19T09:29:50;26.70;37.50
4097;DHT22;2062;50.694;7.246;2022-08-19T09:32:17;26.70;37.40
4097;DHT22;2062;50.694;7.246;2022-08-19T09:34:44;26.70;37.40
4097;DHT22;2062;50.694;7.246;2022-08-19T09:37:11;26.70;37.40
4097;DHT22;2062;50.694;7.246;2022-08-19T09:39:39;26.70;37.40
4097;DHT22;2062;50.694;7.246;2022-08-19T09:42:09;26.70;37.50
4097;DHT22;2062;50.694;7.246;2022-08-19T09:44:38;26.70;37.40
4097;DHT22;2062;50.694;7.246;2022-08-19T09:47:05;26.60;38.10
4097;DHT22;2062;50.694;7.246;2022-08-19T09:49:32;26.70;37.40
4097;DHT22;2062;50.694;7.246;2022-08-19T09:52:00;26.70;37.40
4097;DHT22;2062;50.694;7.246;2022-08-19T09:54:27;26.70;37.40
4097;DHT22;2062;50.694;7.246;2022-08-19T09:56:55;26.70;38.00
4097;DHT22;2062;50.694;7.246;2022-08-19T09:59:23;26.70;37.40
4097;DHT22;2062;50.694;7.246;2022-08-19T10:01:50;26.70;37.40
4097;DHT22;2062;50.694;7.246;2022-08-19T10:04:17;26.70;37.40
4097;DHT22;2062;50.694;7.246;2022-08-19T10:06:45;26.70;37.40
4097;DHT22;2062;50.694;7.246;2022-08-19T10:09:14;26.60;37.40
4097;DHT22;2062;50.694;7.246;2022-08-19T10:11:43;26.70;37.30
4097;DHT22;2062;50.694;7.246;2022-08-19T10:14:11;26.70;37.30
4097;DHT22;2062;50.694;7.246;2022-08-19T10:16:40;26.70;37.30
4097;DHT22;2062;50.694;7.246;2022-08-19T10:19:07;26.70;37.30
4097;DHT22;2062;50.694;7.246;2022-08-19T10:21:35;26.70;37.30
4097;DHT22;2062;50.694;7.246;2022-08-19T10:24:04;26.70;37.30
4097;DHT22;2062;50.694;7.246;2022-08-19T10:26:33;26.70;37.30
4097;DHT22;2062;50.694;7.246;2022-08-19T10:29:01;26.70;37.30
4097;DHT22;2062;50.694;7.246;2022-08-19T10:31:31;26.70;37.30
4097;DHT22;2062;50.694;7.246;2022-08-19T10:34:01;26.70;37.30
4097;DHT22;2062;50.694;7.246;2022-08-19T10:36:29;26.70;37.30
4097;DHT22;2062;50.694;7.246;2022-08-19T10:38:59;26.70;37.30
4097;DHT22;2062;50.694;7.246;2022-08-19T10:41:30;26.70;37.30
4097;DHT22;2062;50.694;7.246;2022-08-19T10:44:01;26.70;37.30
4097;DHT22;2062;50.694;7.246;2022-08-19T10:46:29;26.70;37.30
4097;DHT22;2062;50.694;7.246;2022-08-19T10:48:59;26.70;37.30
4097;DHT22;2062;50.694;7.246;2022-08-19T10:51:27;26.70;38.00
4097;DHT22;2062;50.694;7.246;2022-08-19T10:54:11;26.70;37.30
4097;DHT22;2062;50.694;7.246;2022-08-19T10:56:38;26.70;37.30
4097;DHT22;2062;50.694;7.246;2022-08-19T10:59:22;26.70;37.30
4097;DHT22;2062;50.694;7.246;2022-08-19T11:01:50;26.70;37.30
4097;DHT22;2062;50.694;7.246;2022-08-19T11:04:19;26.70;37.20
4097;DHT22;2062;50.694;7.246;2022-08-19T11:06:48;26.70;37.30
4097;DHT22;2062;50.694;7.246;2022-08-19T11:09:19;26.70;37.20
4097;DHT22;2062;50.694;7.246;2022-08-19T11:11:46;26.70;37.20
4097;DHT22;2062;50.694;7.246;2022-08-19T11:14:16;26.70;37.20
4097;DHT22;2062;50.694;7.246;2022-08-19T11:16:45;26.70;37.20
4097;DHT22;2062;50.694;7.246;2022-08-19T11:19:12;26.70;37.20
4097;DHT22;2062;50.694;7.246;2022-08-19T11:21:44;26.70;37.20
4097;DHT22;2062;50.694;7.246;2022-08-19T11:24:14;26.70;37.20
4097;DHT22;2062;50.694;7.246;2022-08-19T11:26:42;26.70;37.20
4097;DHT22;2062;50.694;7.246;2022-08-19T11:29:11;26.70;37.20
4097;DHT22;2062;50.694;7.246;2022-08-19T11:31:41;26.70;37.20
4097;DHT22;2062;50.694;7.246;2022-08-19T11:34:10;26.70;37.20
4097;DHT22;2062;50.694;7.246;2022-08-19T11:36:39;26.70;37.80
4097;DHT22;2062;50.694;7.246;2022-08-19T11:39:09;26.70;37.20
4097;DHT22;2062;50.694;7.246;2022-08-19T11:41:36;26.70;37.20
4097;DHT22;2062;50.694;7.246;2022-08-19T11:44:03;26.70;37.10
4097;DHT22;2062;50.694;7.246;2022-08-19T11:46:34;26.70;37.10
4097;DHT22;2062;50.694;7.246;2022-08-19T11:49:03;26.70;37.10
4097;DHT22;2062;50.694;7.246;2022-08-19T11:51:31;26.70;37.10
4097;DHT22;2062;50.694;7.246;2022-08-19T11:53:59;26.70;37.10
4097;DHT22;2062;50.694;7.246;2022-08-19T11:56:28;26.80;37.10
4097;DHT22;2062;50.694;7.246;2022-08-19T11:58:55;26.70;37.10
4097;DHT22;2062;50.694;7.246;2022-08-19T12:01:25;26.70;37.10
4097;DHT22;2062;50.694;7.246;2022-08-19T12:03:53;26.80;37.10
4097;DHT22;2062;50.694;7.246;2022-08-19T12:06:23;26.70;37.10
4097;DHT22;2062;50.694;7.246;2022-08-19T12:08:54;26.80;37.00
4097;DHT22;2062;50.694;7.246;2022-08-19T12:11:21;26.80;37.70
4097;DHT22;2062;50.694;7.246;2022-08-19T12:13:50;26.80;37.00
4097;DHT22;2062;50.694;7.246;2022-08-19T12:16:19;26.80;37.00
4097;DHT22;2062;50.694;7.246;2022-08-19T12:18:47;26.80;37.00
4097;DHT22;2062;50.694;7.246;2022-08-19T12:21:14;26.80;37.00
4097;DHT22;2062;50.694;7.246;2022-08-19T12:23:42;26.80;37.00
4097;DHT22;2062;50.694;7.246;2022-08-19T12:26:11;26.80;37.00
4097;DHT22;2062;50.694;7.246;2022-08-19T12:28:39;26.80;37.00
4097;DHT22;2062;50.694;7.246;2022-08-19T12:31:09;26.80;37.00
4097;DHT22;2062;50.694;7.246;2022-08-19T12:33:38;26.80;37.00
4097;DHT22;2062;50.694;7.246;2022-08-19T12:36:07;26.80;37.00
4097;DHT22;2062;50.694;7.246;2022-08-19T12:38:35;26.80;37.00
4097;DHT22;2062;50.694;7.246;2022-08-19T12:41:02;26.80;37.00
4097;DHT22;2062;50.694;7.246;2022-08-19T12:43:32;26.80;37.00
4097;DHT22;2062;50.694;7.246;2022-08-19T12:46:00;26.90;37.00
4097;DHT22;2062;50.694;7.246;2022-08-19T12:48:28;26.80;37.00
4097;DHT22;2062;50.694;7.246;2022-08-19T12:50:55;26.80;36.90
4097;DHT22;2062;50.694;7.246;2022-08-19T12:53:23;26.80;36.90
4097;DHT22;2062;50.694;7.246;2022-08-19T12:55:54;26.80;36.90
4097;DHT22;2062;50.694;7.246;2022-08-19T12:58:22;26.80;36.90
4097;DHT22;2062;50.694;7.246;2022-08-19T13:00:50;26.80;37.00
4097;DHT22;2062;50.694;7.246;2022-08-19T13:03:17;26.90;36.90
4097;DHT22;2062;50.694;7.246;2022-08-19T13:05:45;26.80;36.90
4097;DHT22;2062;50.694;7.246;2022-08-19T13:08:12;26.80;36.90
4097;DHT22;2062;50.694;7.246;2022-08-19T13:10:39;26.80;36.90
4097;DHT22;2062;50.694;7.246;2022-08-19T13:13:08;26.80;36.90
4097;DHT22;2062;50.694;7.246;2022-08-19T13:15:37;26.90;36.90
4097;DHT22;2062;50.694;7.246;2022-08-19T13:18:06;26.90;36.90
4097;DHT22;2062;50.694;7.246;2022-08-19T13:20:35;26.80;36.90
4097;DHT22;2062;50.694;7.246;2022-08-19T13:23:04;26.80;37.50
4097;DHT22;2062;50.694;7.246;2022-08-19T13:25:31;26.80;36.90
4097;DHT22;2062;50.694;7.246;2022-08-19T13:27:59;26.90;36.90
4097;DHT22;2062;50.694;7.246;2022-08-19T13:30:26;26.80;36.90
4097;DHT22;2062;50.694;7.246;2022-08-19T13:33:11;26.80;37.50
4097;DHT22;2062;50.694;7.246;2022-08-19T13:35:42;26.90;36.80
4097;DHT22;2062;50.694;7.246;2022-08-19T13:38:11;26.90;36.80
4097;DHT22;2062;50.694;7.246;2022-08-19T13:40:40;26.80;36.80
4097;DHT22;2062;50.694;7.246;2022-08-19T13:43:08;26.90;36.80
4097;DHT22;2062;50.694;7.246;2022-08-19T13:45:35;26.80;36.80
4097;DHT22;2062;50.694;7.246;2022-08-19T13:48:04;26.90;36.80
4097;DHT22;2062;50.694;7.246;2022-08-19T13:50:37;26.90;36.80
4097;DHT22;2062;50.694;7.246;2022-08-19T13:53:05;26.80;36.80
4097;DHT22;2062;50.694;7.246;2022-08-19T13:55:34;26.90;36.80
4097;DHT22;2062;50.694;7.246;2022-08-19T13:58:02;26.90;36.80
4097;DHT22;2062;50.694;7.246;2022-08-19T14:00:31;26.90;36.80
4097;DHT22;2062;50.694;7.246;2022-08-19T14:02:59;26.80;36.80
4097;DHT22;2062;50.694;7.246;2022-08-19T14:05:27;26.90;36.80
4097;DHT22;2062;50.694;7.246;2022-08-19T14:07:55;26.90;37.40
4097;DHT22;2062;50.694;7.246;2022-08-19T14:10:22;26.90;36.80
4097;DHT22;2062;50.694;7.246;2022-08-19T14:12:54;26.90;36.80
4097;DHT22;2062;50.694;7.246;2022-08-19T14:15:23;26.90;36.80
4097;DHT22;2062;50.694;7.246;2022-08-19T14:17:51;26.90;36.80
4097;DHT22;2062;50.694;7.246;2022-08-19T14:20:18;26.90;36.80
4097;DHT22;2062;50.694;7.246;2022-08-19T14:22:47;26.80;36.80
4097;DHT22;2062;50.694;7.246;2022-08-19T14:25:17;26.90;36.80
4097;DHT22;2062;50.694;7.246;2022-08-19T14:27:45;26.90;36.80
4097;DHT22;2062;50.694;7.246;2022-08-19T14:30:16;26.90;36.80
4097;DHT22;2062;50.694;7.246;2022-08-19T14:32:43;26.90;36.70
4097;DHT22;2062;50.694;7.246;2022-08-19T14:35:12;26.90;36.80
4097;DHT22;2062;50.694;7.246;2022-08-19T14:37:40;26.90;36.80
4097;DHT22;2062;50.694;7.246;2022-08-19T14:40:08;26.90;36.80
4097;DHT22;2062;50.694;7.246;2022-08-19T14:42:35;26.90;36.80
4097;DHT22;2062;50.694;7.246;2022-08-19T14:45:03;26.90;36.80
4097;DHT22;2062;50.694;7.246;2022-08-19T14:47:33;26.90;36.80
4097;DHT22;2062;50.694;7.246;2022-08-19T14:50:00;26.90;36.70
4097;DHT22;2062;50.694;7.246;2022-08-19T14:52:27;26.90;36.70
4097;DHT22;2062;50.694;7.246;2022-08-19T14:54:54;26.90;36.70
4097;DHT22;2062;50.694;7.246;2022-08-19T14:57:21;26.90;36.70
4097;DHT22;2062;50.694;7.246;2022-08-19T14:59:48;26.90;36.70
4097;DHT22;2062;50.694;7.246;2022-08-19T15:02:15;26.90;36.70
4097;DHT22;2062;50.694;7.246;2022-08-19T15:04:44;26.90;36.70
4097;DHT22;2062;50.694;7.246;2022-08-19T15:07:11;26.90;36.70
4097;DHT22;2062;50.694;7.246;2022-08-19T15:09:38;26.90;36.70
4097;DHT22;2062;50.694;7.246;2022-08-19T15:12:05;26.90;36.70
4097;DHT22;2062;50.694;7.246;2022-08-19T15:14:36;26.90;36.60
4097;DHT22;2062;50.694;7.246;2022-08-19T15:17:04;26.90;36.60
4097;DHT22;2062;50.694;7.246;2022-08-19T15:19:32;26.90;36.60
4097;DHT22;2062;50.694;7.246;2022-08-19T15:22:02;26.90;36.60
4097;DHT22;2062;50.694;7.246;2022-08-19T15:24:29;26.90;36.60
4097;DHT22;2062;50.694;7.246;2022-08-19T15:26:57;26.90;36.60
4097;DHT22;2062;50.694;7.246;2022-08-19T15:29:24;26.90;36.60
4097;DHT22;2062;50.694;7.246;2022-08-19T15:31:53;26.90;36.60
4097;DHT22;2062;50.694;7.246;2022-08-19T15:34:22;26.90;36.60
4097;DHT22;2062;50.694;7.246;2022-08-19T15:36:49;26.90;36.60
4097;DHT22;2062;50.694;7.246;2022-08-19T15:39:18;26.90;36.60
4097;DHT22;2062;50.694;7.246;2022-08-19T15:41:46;26.90;36.60
4097;DHT22;2062;50.694;7.246;2022-08-19T15:44:15;26.90;36.60
4097;DHT22;2062;50.694;7.246;2022-08-19T15:46:44;26.90;36.60
4097;DHT22;2062;50.694;7.246;2022-08-19T15:49:13;26.90;36.60
4097;DHT22;2062;50.694;7.246;2022-08-19T15:51:42;26.90;36.60
4097;DHT22;2062;50.694;7.246;2022-08-19T15:54:13;26.90;36.60
4097;DHT22;2062;50.694;7.246;2022-08-19T15:56:41;26.90;36.60
4097;DHT22;2062;50.694;7.246;2022-08-19T15:59:33;26.90;36.60
4097;DHT22;2062;50.694;7.246;2022-08-19T16:02:20;26.90;36.60
4097;DHT22;2062;50.694;7.246;2022-08-19T16:05:07;26.90;36.50
4097;DHT22;2062;50.694;7.246;2022-08-19T16:07:52;26.90;36.60
4097;DHT22;2062;50.694;7.246;2022-08-19T16:10:19;26.90;36.60
4097;DHT22;2062;50.694;7.246;2022-08-19T16:12:48;26.90;36.60